sensor_id;sensor_type;location;lat;lon;timestamp;temperature;humidity
10231;DHT22;62604;49.432;8.680;2022-08-18T00:02:08;22.60;82.00
10231;DHT22;62604;49.432;8.680;2022-08-18T00:04:35;22.70;82.90
10231;DHT22;62604;49.432;8.680;2022-08-18T00:07:04;22.70;82.90
10231;DHT22;62604;49.432;8.680;2022-08-18T00:09:33;22.60;82.70
10231;DHT22;62604;49.432;8.680;2022-08-18T00:12:03;22.60;83.00
10231;DHT22;62604;49.432;8.680;2022-08-18T00:14:33;22.60;83.10
10231;DHT22;62604;49.432;8.680;2022-08-18T00:17:00;22.60;82.90
10231;DHT22;62604;49.432;8.680;2022-08-18T00:19:27;22.60;83.70
10231;DHT22;62604;49.432;8.680;2022-08-18T00:21:54;22.50;84.10
10231;DHT22;62604;49.432;8.680;2022-08-18T00:24:21;22.50;84.50
10231;DHT22;62604;49.432;8.680;2022-08-18T00:26:48;22.50;83.60
10231;DHT22;62604;49.432;8.680;2022-08-18T00:29:15;22.40;83.70
10231;DHT22;62604;49.432;8.680;2022-08-18T00:31:43;22.40;83.20
10231;DHT22;62604;49.432;8.680;2022-08-18T00:34:10;22.40;83.20
10231;DHT22;62604;49.432;8.680;2022-08-18T00:36:37;22.30;83.40
10231;DHT22;62604;49.432;8.680;2022-08-18T00:39:05;22.30;83.80
10231;DHT22;62604;49.432;8.680;2022-08-18T00:41:32;22.30;83.50
10231;DHT22;62604;49.432;8.680;2022-08-18T00:44:00;22.30;83.60
10231;DHT22;62604;49.432;8.680;2022-08-18T00:46:31;22.20;83.80
10231;DHT22;62604;49.432;8.680;2022-08-18T00:49:00;22.20;83.80
10231;DHT22;62604;49.432;8.680;2022-08-18T00:51:33;22.10;83.70
10231;DHT22;62604;49.432;8.680;2022-08-18T00:54:04;22.10;84.00
10231;DHT22;62604;49.432;8.680;2022-08-18T00:56:37;22.10;83.70
10231;DHT22;62604;49.432;8.680;2022-08-18T00:59:09;22.10;83.70
10231;DHT22;62604;49.432;8.680;2022-08-18T01:01:38;22.10;84.10
10231;DHT22;62604;49.432;8.680;2022-08-18T01:04:11;22.10;84.40
10231;DHT22;62604;49.432;8.680;2022-08-18T01:06:48;22.00;84.10
10231;DHT22;62604;49.432;8.680;2022-08-18T01:09:17;21.90;84.10
10231;DHT22;62604;49.432;8.680;2022-08-18T01:11:44;21.90;84.20
10231;DHT22;62604;49.432;8.680;2022-08-18T01:14:12;21.90;84.10
10231;DHT22;62604;49.432;8.680;2022-08-18T01:16:41;21.90;84.00
10231;DHT22;62604;49.432;8.680;2022-08-18T01:19:27;21.80;84.20
10231;DHT22;62604;49.432;8.680;2022-08-18T01:22:18;21.70;84.30
10231;DHT22;62604;49.432;8.680;2022-08-18T01:24:49;21.60;84.20
10231;DHT22;62604;49.432;8.680;2022-08-18T01:27:34;21.60;84.90
10231;DHT22;62604;49.432;8.680;2022-08-18T01:30:05;21.60;85.20
10231;DHT22;62604;49.432;8.680;2022-08-18T01:32:36;21.50;85.40
10231;DHT22;62604;49.432;8.680;2022-08-18T01:35:06;21.50;85.90
10231;DHT22;62604;49.432;8.680;2022-08-18T01:37:35;21.40;86.70
10231;DHT22;62604;49.432;8.680;2022-08-18T01:40:05;21.40;87.00
10231;DHT22;62604;49.432;8.680;2022-08-18T01:42:33;21.40;87.80
10231;DHT22;62604;49.432;8.680;2022-08-18T01:45:00;21.30;88.70
10231;DHT22;62604;49.432;8.680;2022-08-18T01:47:29;21.30;89.30
10231;DHT22;62604;49.432;8.680;2022-08-18T01:49:58;21.20;89.70
10231;DHT22;62604;49.432;8.680;2022-08-18T01:52:25;21.20;90.00
10231;DHT22;62604;49.432;8.680;2022-08-18T01:54:54;21.20;90.00
10231;DHT22;62604;49.432;8.680;2022-08-18T01:57:24;21.20;90.00
10231;DHT22;62604;49.432;8.680;2022-08-18T01:59:51;21.20;89.90
10231;DHT22;62604;49.432;8.680;2022-08-18T02:02:22;21.20;90.00
10231;DHT22;62604;49.432;8.680;2022-08-18T02:04:51;21.20;90.00
10231;DHT22;62604;49.432;8.680;2022-08-18T02:07:20;21.20;90.10
10231;DHT22;62604;49.432;8.680;2022-08-18T02:09:47;21.10;90.40
10231;DHT22;62604;49.432;8.680;2022-08-18T02:12:14;21.10;90.80
10231;DHT22;62604;49.432;8.680;2022-08-18T02:14:42;21.10;90.80
10231;DHT22;62604;49.432;8.680;2022-08-18T02:17:11;21.00;91.00
10231;DHT22;62604;49.432;8.680;2022-08-18T02:19:41;21.00;91.30
10231;DHT22;62604;49.432;8.680;2022-08-18T02:22:10;21.00;91.30
10231;DHT22;62604;49.432;8.680;2022-08-18T02:24:38;21.00;91.40
10231;DHT22;62604;49.432;8.680;2022-08-18T02:27:06;21.00;91.30
10231;DHT22;62604;49.432;8.680;2022-08-18T02:29:34;21.00;91.20
10231;DHT22;62604;49.432;8.680;2022-08-18T02:32:03;21.00;91.10
10231;DHT22;62604;49.432;8.680;2022-08-18T02:34:30;21.00;90.80
10231;DHT22;62604;49.432;8.680;2022-08-18T02:36:58;21.00;90.80
10231;DHT22;62604;49.432;8.680;2022-08-18T02:39:25;21.10;90.90
10231;DHT22;62604;49.432;8.680;2022-08-18T02:41:53;21.00;91.00
10231;DHT22;62604;49.432;8.680;2022-08-18T02:44:20;20.90;91.00
10231;DHT22;62604;49.432;8.680;2022-08-18T02:46:51;20.90;91.10
10231;DHT22;62604;49.432;8.680;2022-08-18T02:49:20;21.00;91.10
10231;DHT22;62604;49.432;8.680;2022-08-18T02:51:47;20.90;91.00
10231;DHT22;62604;49.432;8.680;2022-08-18T02:54:14;20.90;91.00
10231;DHT22;62604;49.432;8.680;2022-08-18T02:56:41;20.90;91.00
10231;DHT22;62604;49.432;8.680;2022-08-18T02:59:12;20.90;90.90
10231;DHT22;62604;49.432;8.680;2022-08-18T03:01:41;20.90;90.90
10231;DHT22;62604;49.432;8.680;2022-08-18T03:04:10;20.90;90.90
10231;DHT22;62604;49.432;8.680;2022-08-18T03:06:38;20.90;90.70
10231;DHT22;62604;49.432;8.680;2022-08-18T03:09:07;20.90;90.70
10231;DHT22;62604;49.432;8.680;2022-08-18T03:11:34;20.90;90.60
10231;DHT22;62604;49.432;8.680;2022-08-18T03:14:03;20.90;90.40
10231;DHT22;62604;49.432;8.680;2022-08-18T03:16:31;20.90;90.30
10231;DHT22;62604;49.432;8.680;2022-08-18T03:19:00;20.90;90.30
10231;DHT22;62604;49.432;8.680;2022-08-18T03:21:29;20.90;90.20
10231;DHT22;62604;49.432;8.680;2022-08-18T03:23:58;20.90;90.60
10231;DHT22;62604;49.432;8.680;2022-08-18T03:26:26;20.90;90.50
10231;DHT22;62604;49.432;8.680;2022-08-18T03:28:54;20.90;90.40
10231;DHT22;62604;49.432;8.680;2022-08-18T03:31:23;20.90;90.40
10231;DHT22;62604;49.432;8.680;2022-08-18T03:33:51;21.00;90.50
10231;DHT22;62604;49.432;8.680;2022-08-18T03:36:20;21.00;90.40
10231;DHT22;62604;49.432;8.680;2022-08-18T03:38:49;21.00;90.60
10231;DHT22;62604;49.432;8.680;2022-08-18T03:41:19;21.00;90.80
10231;DHT22;62604;49.432;8.680;2022-08-18T03:43:48;21.00;90.90
10231;DHT22;62604;49.432;8.680;2022-08-18T03:46:17;21.00;91.20
10231;DHT22;62604;49.432;8.680;2022-08-18T03:48:45;20.90;91.60
10231;DHT22;62604;49.432;8.680;2022-08-18T03:51:16;20.80;92.50
10231;DHT22;62604;49.432;8.680;2022-08-18T03:53:44;20.80;92.90
10231;DHT22;62604;49.432;8.680;2022-08-18T03:56:14;20.80;93.00
10231;DHT22;62604;49.432;8.680;2022-08-18T03:58:43;20.70;93.70
10231;DHT22;62604;49.432;8.680;2022-08-18T04:01:12;20.70;93.90
10231;DHT22;62604;49.432;8.680;2022-08-18T04:03:41;20.70;94.40
10231;DHT22;62604;49.432;8.680;2022-08-18T04:06:14;20.60;95.00
10231;DHT22;62604;49.432;8.680;2022-08-18T04:08:41;20.60;95.50
10231;DHT22;62604;49.432;8.680;2022-08-18T04:11:09;20.50;96.20
10231;DHT22;62604;49.432;8.680;2022-08-18T04:13:37;20.40;96.50
10231;DHT22;62604;49.432;8.680;2022-08-18T04:16:06;20.40;96.80
10231;DHT22;62604;49.432;8.680;2022-08-18T04:18:34;20.40;97.00
10231;DHT22;62604;49.432;8.680;2022-08-18T04:21:01;20.30;97.80
10231;DHT22;62604;49.432;8.680;2022-08-18T04:23:28;20.20;98.80
10231;DHT22;62604;49.432;8.680;2022-08-18T04:25:56;20.20;99.30
10231;DHT22;62604;49.432;8.680;2022-08-18T04:28:25;20.10;99.90
10231;DHT22;62604;49.432;8.680;2022-08-18T04:30:55;20.10;99.90
10231;DHT22;62604;49.432;8.680;2022-08-18T04:33:25;20.10;99.90
10231;DHT22;62604;49.432;8.680;2022-08-18T04:35:53;20.10;99.90
10231;DHT22;62604;49.432;8.680;2022-08-18T04:38:21;20.00;99.90
10231;DHT22;62604;49.432;8.680;2022-08-18T04:40:50;20.00;99.90
10231;DHT22;62604;49.432;8.680;2022-08-18T04:43:19;20.00;99.90
10231;DHT22;62604;49.432;8.680;2022-08-18T04:45:47;20.00;99.90
10231;DHT22;62604;49.432;8.680;2022-08-18T04:48:15;20.00;99.90
10231;DHT22;62604;49.432;8.680;2022-08-18T04:50:44;20.00;99.90
10231;DHT22;62604;49.432;8.680;2022-08-18T04:53:10;19.90;99.90
10231;DHT22;62604;49.432;8.680;2022-08-18T04:55:55;19.90;99.90
10231;DHT22;62604;49.432;8.680;2022-08-18T04:58:23;19.90;99.90
10231;DHT22;62604;49.432;8.680;2022-08-18T05:00:56;19.90;99.90
10231;DHT22;62604;49.432;8.680;2022-08-18T05:03:24;20.00;99.90
10231;DHT22;62604;49.432;8.680;2022-08-18T05:05:54;20.00;99.90
10231;DHT22;62604;49.432;8.680;2022-08-18T05:08:22;20.10;99.90
10231;DHT22;62604;49.432;8.680;2022-08-18T05:10:52;20.10;99.90
10231;DHT22;62604;49.432;8.680;2022-08-18T05:13:19;20.20;99.90
10231;DHT22;62604;49.432;8.680;2022-08-18T05:15:51;20.20;99.90
10231;DHT22;62604;49.432;8.680;2022-08-18T05:18:19;20.30;99.90
10231;DHT22;62604;49.432;8.680;2022-08-18T05:20:49;20.20;99.90
10231;DHT22;62604;49.432;8.680;2022-08-18T05:23:19;20.30;99.90
10231;DHT22;62604;49.432;8.680;2022-08-18T05:25:46;20.30;99.90
10231;DHT22;62604;49.432;8.680;2022-08-18T05:28:14;20.30;99.90
10231;DHT22;62604;49.432;8.680;2022-08-18T05:30:43;20.30;99.90
10231;DHT22;62604;49.432;8.680;2022-08-18T05:33:11;20.20;99.90
10231;DHT22;62604;49.432;8.680;2022-08-18T05:35:43;20.20;99.90
10231;DHT22;62604;49.432;8.680;2022-08-18T05:38:27;20.30;99.90
10231;DHT22;62604;49.432;8.680;2022-08-18T05:41:07;20.20;99.90
10231;DHT22;62604;49.432;8.680;2022-08-18T05:43:36;20.20;99.90
10231;DHT22;62604;49.432;8.680;2022-08-18T05:46:05;20.20;99.90
10231;DHT22;62604;49.432;8.680;2022-08-18T05:48:33;20.20;99.90
10231;DHT22;62604;49.432;8.680;2022-08-18T05:51:10;20.20;99.90
10231;DHT22;62604;49.432;8.680;2022-08-18T05:53:40;20.20;99.90
10231;DHT22;62604;49.432;8.680;2022-08-18T05:56:30;20.20;99.90
10231;DHT22;62604;49.432;8.680;2022-08-18T05:59:25;20.30;99.90
10231;DHT22;62604;49.432;8.680;2022-08-18T06:01:57;20.20;99.90
10231;DHT22;62604;49.432;8.680;2022-08-18T06:04:40;20.20;99.90
10231;DHT22;62604;49.432;8.680;2022-08-18T06:07:11;20.20;99.90
10231;DHT22;62604;49.432;8.680;2022-08-18T06:09:43;20.30;99.90
10231;DHT22;62604;49.432;8.680;2022-08-18T06:12:29;20.30;99.90
10231;DHT22;62604;49.432;8.680;2022-08-18T06:15:03;20.40;99.90
10231;DHT22;62604;49.432;8.680;2022-08-18T06:17:52;20.50;99.90
10231;DHT22;62604;49.432;8.680;2022-08-18T06:20:29;20.50;99.90
10231;DHT22;62604;49.432;8.680;2022-08-18T06:23:14;20.50;99.90
10231;DHT22;62604;49.432;8.680;2022-08-18T06:25:56;20.60;99.90
10231;DHT22;62604;49.432;8.680;2022-08-18T06:28:37;20.70;99.90
10231;DHT22;62604;49.432;8.680;2022-08-18T06:31:14;20.70;99.90
10231;DHT22;62604;49.432;8.680;2022-08-18T06:33:48;20.80;99.90
10231;DHT22;62604;49.432;8.680;2022-08-18T06:36:28;20.80;99.90
10231;DHT22;62604;49.432;8.680;2022-08-18T06:39:03;20.80;99.90
10231;DHT22;62604;49.432;8.680;2022-08-18T06:41:36;20.80;99.90
10231;DHT22;62604;49.432;8.680;2022-08-18T06:44:07;20.90;99.90
10231;DHT22;62604;49.432;8.680;2022-08-18T06:46:40;20.90;99.90
10231;DHT22;62604;49.432;8.680;2022-08-18T06:49:09;20.90;99.90
10231;DHT22;62604;49.432;8.680;2022-08-18T06:51:38;20.90;99.90
10231;DHT22;62604;49.432;8.680;2022-08-18T06:54:07;20.90;99.90
10231;DHT22;62604;49.432;8.680;2022-08-18T06:56:48;20.90;99.90
10231;DHT22;62604;49.432;8.680;2022-08-18T06:59:21;20.90;99.90
10231;DHT22;62604;49.432;8.680;2022-08-18T07:01:51;20.90;99.90
10231;DHT22;62604;49.432;8.680;2022-08-18T07:04:40;21.00;99.90
10231;DHT22;62604;49.432;8.680;2022-08-18T07:07:23;21.00;99.90
10231;DHT22;62604;49.432;8.680;2022-08-18T07:09:55;21.00;99.90
10231;DHT22;62604;49.432;8.680;2022-08-18T07:12:25;21.00;99.90
10231;DHT22;62604;49.432;8.680;2022-08-18T07:14:55;21.00;99.90
10231;DHT22;62604;49.432;8.680;2022-08-18T07:17:25;21.00;99.90
10231;DHT22;62604;49.432;8.680;2022-08-18T07:20:04;21.00;99.90
10231;DHT22;62604;49.432;8.680;2022-08-18T07:22:51;21.00;99.90
10231;DHT22;62604;49.432;8.680;2022-08-18T07:25:23;21.00;99.90
10231;DHT22;62604;49.432;8.680;2022-08-18T07:27:52;21.00;99.90
10231;DHT22;62604;49.432;8.680;2022-08-18T07:30:28;21.00;99.90
10231;DHT22;62604;49.432;8.680;2022-08-18T07:33:03;21.10;99.90
10231;DHT22;62604;49.432;8.680;2022-08-18T07:35:35;21.10;99.90
10231;DHT22;62604;49.432;8.680;2022-08-18T07:38:09;21.20;99.90
10231;DHT22;62604;49.432;8.680;2022-08-18T07:40:46;21.20;99.90
10231;DHT22;62604;49.432;8.680;2022-08-18T07:43:21;21.20;99.90
10231;DHT22;62604;49.432;8.680;2022-08-18T07:45:56;21.30;99.90
10231;DHT22;62604;49.432;8.680;2022-08-18T07:48:30;21.30;99.90
10231;DHT22;62604;49.432;8.680;2022-08-18T07:51:02;21.20;99.90
10231;DHT22;62604;49.432;8.680;2022-08-18T07:53:39;21.20;99.90
10231;DHT22;62604;49.432;8.680;2022-08-18T07:56:19;21.20;99.90
10231;DHT22;62604;49.432;8.680;2022-08-18T07:58:55;21.20;99.90
10231;DHT22;62604;49.432;8.680;2022-08-18T08:01:29;21.20;99.90
10231;DHT22;62604;49.432;8.680;2022-08-18T08:04:09;21.20;99.90
10231;DHT22;62604;49.432;8.680;2022-08-18T08:06:42;21.20;99.90
10231;DHT22;62604;49.432;8.680;2022-08-18T08:09:19;21.20;99.90
10231;DHT22;62604;49.432;8.680;2022-08-18T08:11:54;21.30;99.90
10231;DHT22;62604;49.432;8.680;2022-08-18T08:14:35;21.30;99.90
10231;DHT22;62604;49.432;8.680;2022-08-18T08:17:12;21.30;99.90
10231;DHT22;62604;49.432;8.680;2022-08-18T08:19:57;21.30;99.90
10231;DHT22;62604;49.432;8.680;2022-08-18T08:22:30;21.30;99.90
10231;DHT22;62604;49.432;8.680;2022-08-18T08:25:04;21.30;99.90
10231;DHT22;62604;49.432;8.680;2022-08-18T08:27:42;21.20;99.90
10231;DHT22;62604;49.432;8.680;2022-08-18T08:30:16;21.20;99.90
10231;DHT22;62604;49.432;8.680;2022-08-18T08:33:00;21.20;99.90
10231;DHT22;62604;49.432;8.680;2022-08-18T08:35:39;21.10;99.90
10231;DHT22;62604;49.432;8.680;2022-08-18T08:38:10;21.10;99.90
10231;DHT22;62604;49.432;8.680;2022-08-18T08:40:46;21.10;99.90
10231;DHT22;62604;49.432;8.680;2022-08-18T08:43:22;21.10;99.90
10231;DHT22;62604;49.432;8.680;2022-08-18T08:46:09;21.00;99.90
10231;DHT22;62604;49.432;8.680;2022-08-18T08:48:41;21.00;99.90
10231;DHT22;62604;49.432;8.680;2022-08-18T08:51:22;21.00;99.90
10231;DHT22;62604;49.432;8.680;2022-08-18T08:53:56;20.90;99.90
10231;DHT22;62604;49.432;8.680;2022-08-18T08:56:29;20.90;99.90
10231;DHT22;62604;49.432;8.680;2022-08-18T08:58:59;20.90;99.90
10231;DHT22;62604;49.432;8.680;2022-08-18T09:01:34;20.90;99.90
10231;DHT22;62604;49.432;8.680;2022-08-18T09:04:16;20.80;99.90
10231;DHT22;62604;49.432;8.680;2022-08-18T09:06:49;20.90;99.90
10231;DHT22;62604;49.432;8.680;2022-08-18T09:09:28;20.90;99.90
10231;DHT22;62604;49.432;8.680;2022-08-18T09:12:10;20.80;99.90
10231;DHT22;62604;49.432;8.680;2022-08-18T09:15:08;20.80;99.90
10231;DHT22;62604;49.432;8.680;2022-08-18T09:17:54;20.80;99.90
10231;DHT22;62604;49.432;8.680;2022-08-18T09:20:47;20.80;99.90
10231;DHT22;62604;49.432;8.680;2022-08-18T09:23:18;20.80;99.90
10231;DHT22;62604;49.432;8.680;2022-08-18T09:25:49;20.70;99.90
10231;DHT22;62604;49.432;8.680;2022-08-18T09:28:18;20.70;99.90
10231;DHT22;62604;49.432;8.680;2022-08-18T09:33:51;20.70;99.90
10231;DHT22;62604;49.432;8.680;2022-08-18T09:36:37;20.90;99.90
10231;DHT22;62604;49.432;8.680;2022-08-18T09:39:18;20.90;99.90
10231;DHT22;62604;49.432;8.680;2022-08-18T09:42:08;21.20;99.90
10231;DHT22;62604;49.432;8.680;2022-08-18T09:47:56;21.90;99.90
10231;DHT22;62604;49.432;8.680;2022-08-18T09:50:51;22.30;99.90
10231;DHT22;62604;49.432;8.680;2022-08-18T09:57:15;24.10;99.90
10231;DHT22;62604;49.432;8.680;2022-08-18T10:03:22;24.40;96.50
10231;DHT22;62604;49.432;8.680;2022-08-18T10:06:14;24.20;98.90
10231;DHT22;62604;49.432;8.680;2022-08-18T10:09:23;25.10;95.60
10231;DHT22;62604;49.432;8.680;2022-08-18T10:12:03;25.20;95.80
10231;DHT22;62604;49.432;8.680;2022-08-18T10:17:56;27.70;90.50
10231;DHT22;62604;49.432;8.680;2022-08-18T10:20:46;28.30;83.00
10231;DHT22;62604;49.432;8.680;2022-08-18T10:23:50;28.30;80.10
10231;DHT22;62604;49.432;8.680;2022-08-18T10:29:45;28.20;80.50
10231;DHT22;62604;49.432;8.680;2022-08-18T10:32:21;27.90;79.30
10231;DHT22;62604;49.432;8.680;2022-08-18T10:34:50;27.50;80.40
10231;DHT22;62604;49.432;8.680;2022-08-18T10:37:20;27.30;83.20
10231;DHT22;62604;49.432;8.680;2022-08-18T10:39:51;26.90;83.60
10231;DHT22;62604;49.432;8.680;2022-08-18T10:42:23;26.50;87.10
10231;DHT22;62604;49.432;8.680;2022-08-18T10:44:59;26.30;88.10
10231;DHT22;62604;49.432;8.680;2022-08-18T10:47:30;26.10;90.00
10231;DHT22;62604;49.432;8.680;2022-08-18T10:49:58;25.90;90.50
10231;DHT22;62604;49.432;8.680;2022-08-18T10:52:51;25.80;91.20
10231;DHT22;62604;49.432;8.680;2022-08-18T10:55:35;25.50;91.80
10231;DHT22;62604;49.432;8.680;2022-08-18T10:58:16;25.30;93.30
10231;DHT22;62604;49.432;8.680;2022-08-18T11:01:00;25.20;93.10
10231;DHT22;62604;49.432;8.680;2022-08-18T11:03:48;24.80;94.50
10231;DHT22;62604;49.432;8.680;2022-08-18T11:06:22;24.60;96.30
10231;DHT22;62604;49.432;8.680;2022-08-18T11:08:54;24.60;95.80
10231;DHT22;62604;49.432;8.680;2022-08-18T11:11:25;24.50;94.20
10231;DHT22;62604;49.432;8.680;2022-08-18T11:14:06;24.00;97.10
10231;DHT22;62604;49.432;8.680;2022-08-18T11:16:44;23.80;96.70
10231;DHT22;62604;49.432;8.680;2022-08-18T11:19:15;23.90;98.10
10231;DHT22;62604;49.432;8.680;2022-08-18T11:21:44;24.40;98.30
10231;DHT22;62604;49.432;8.680;2022-08-18T11:24:14;25.30;93.90
10231;DHT22;62604;49.432;8.680;2022-08-18T11:26:45;26.40;90.70
10231;DHT22;62604;49.432;8.680;2022-08-18T11:29:23;26.40;87.90
10231;DHT22;62604;49.432;8.680;2022-08-18T11:31:54;26.30;84.50
10231;DHT22;62604;49.432;8.680;2022-08-18T11:34:28;25.90;86.90
10231;DHT22;62604;49.432;8.680;2022-08-18T11:36:57;25.90;87.10
10231;DHT22;62604;49.432;8.680;2022-08-18T11:39:26;26.10;84.90
10231;DHT22;62604;49.432;8.680;2022-08-18T11:41:55;26.40;82.70
10231;DHT22;62604;49.432;8.680;2022-08-18T11:44:29;26.40;84.80
10231;DHT22;62604;49.432;8.680;2022-08-18T11:47:11;27.40;79.30
10231;DHT22;62604;49.432;8.680;2022-08-18T11:49:52;28.20;76.80
10231;DHT22;62604;49.432;8.680;2022-08-18T11:52:29;28.70;69.90
10231;DHT22;62604;49.432;8.680;2022-08-18T11:54:59;28.40;67.60
10231;DHT22;62604;49.432;8.680;2022-08-18T11:57:40;28.00;69.40
10231;DHT22;62604;49.432;8.680;2022-08-18T12:03:26;26.90;74.70
10231;DHT22;62604;49.432;8.680;2022-08-18T12:05:57;26.20;74.70
10231;DHT22;62604;49.432;8.680;2022-08-18T12:08:32;26.10;75.60
10231;DHT22;62604;49.432;8.680;2022-08-18T12:11:04;25.30;76.50
10231;DHT22;62604;49.432;8.680;2022-08-18T12:13:33;25.00;80.10
10231;DHT22;62604;49.432;8.680;2022-08-18T12:16:11;24.90;80.30
10231;DHT22;62604;49.432;8.680;2022-08-18T12:18:39;25.20;79.60
10231;DHT22;62604;49.432;8.680;2022-08-18T12:21:08;25.80;78.80
10231;DHT22;62604;49.432;8.680;2022-08-18T12:23:39;26.30;77.90
10231;DHT22;62604;49.432;8.680;2022-08-18T12:26:07;26.80;73.50
10231;DHT22;62604;49.432;8.680;2022-08-18T12:28:36;26.80;72.30
10231;DHT22;62604;49.432;8.680;2022-08-18T12:31:05;27.30;71.70
10231;DHT22;62604;49.432;8.680;2022-08-18T12:33:32;27.90;69.30
10231;DHT22;62604;49.432;8.680;2022-08-18T12:36:00;28.40;66.20
10231;DHT22;62604;49.432;8.680;2022-08-18T12:38:27;28.10;66.30
10231;DHT22;62604;49.432;8.680;2022-08-18T12:40:54;27.60;67.50
10231;DHT22;62604;49.432;8.680;2022-08-18T12:43:21;27.60;67.10
10231;DHT22;62604;49.432;8.680;2022-08-18T12:45:50;26.70;70.60
10231;DHT22;62604;49.432;8.680;2022-08-18T12:48:17;26.30;72.60
10231;DHT22;62604;49.432;8.680;2022-08-18T12:50:44;26.10;74.30
10231;DHT22;62604;49.432;8.680;2022-08-18T12:53:11;25.60;76.90
10231;DHT22;62604;49.432;8.680;2022-08-18T12:55:41;25.40;78.50
10231;DHT22;62604;49.432;8.680;2022-08-18T12:58:09;25.40;78.10
10231;DHT22;62604;49.432;8.680;2022-08-18T13:00:36;25.40;78.10
10231;DHT22;62604;49.432;8.680;2022-08-18T13:03:07;25.60;78.70
10231;DHT22;62604;49.432;8.680;2022-08-18T13:05:35;26.00;78.00
10231;DHT22;62604;49.432;8.680;2022-08-18T13:08:04;26.40;76.60
10231;DHT22;62604;49.432;8.680;2022-08-18T13:10:31;26.90;74.60
10231;DHT22;62604;49.432;8.680;2022-08-18T13:12:59;27.10;73.10
10231;DHT22;62604;49.432;8.680;2022-08-18T13:15:26;27.80;70.30
10231;DHT22;62604;49.432;8.680;2022-08-18T13:17:53;27.90;67.30
10231;DHT22;62604;49.432;8.680;2022-08-18T13:20:22;27.00;69.30
10231;DHT22;62604;49.432;8.680;2022-08-18T13:22:49;26.50;70.00
10231;DHT22;62604;49.432;8.680;2022-08-18T13:25:16;26.20;71.70
10231;DHT22;62604;49.432;8.680;2022-08-18T13:27:43;26.50;72.20
10231;DHT22;62604;49.432;8.680;2022-08-18T13:30:14;26.60;71.50
10231;DHT22;62604;49.432;8.680;2022-08-18T13:32:41;26.50;71.30
10231;DHT22;62604;49.432;8.680;2022-08-18T13:35:10;26.30;71.40
10231;DHT22;62604;49.432;8.680;2022-08-18T13:37:38;26.80;71.00
10231;DHT22;62604;49.432;8.680;2022-08-18T13:40:07;26.90;69.40
10231;DHT22;62604;49.432;8.680;2022-08-18T13:42:42;26.80;67.10
10231;DHT22;62604;49.432;8.680;2022-08-18T13:45:13;26.50;66.60
10231;DHT22;62604;49.432;8.680;2022-08-18T13:47:40;26.50;65.50
10231;DHT22;62604;49.432;8.680;2022-08-18T13:50:10;26.60;67.80
10231;DHT22;62604;49.432;8.680;2022-08-18T13:52:39;26.80;65.00
10231;DHT22;62604;49.432;8.680;2022-08-18T13:55:10;26.80;59.80
10231;DHT22;62604;49.432;8.680;2022-08-18T13:57:38;26.90;59.40
10231;DHT22;62604;49.432;8.680;2022-08-18T14:00:08;27.20;62.50
10231;DHT22;62604;49.432;8.680;2022-08-18T14:02:37;27.80;63.30
10231;DHT22;62604;49.432;8.680;2022-08-18T14:05:05;27.90;64.30
10231;DHT22;62604;49.432;8.680;2022-08-18T14:07:33;28.30;63.90
10231;DHT22;62604;49.432;8.680;2022-08-18T14:10:03;28.00;62.50
10231;DHT22;62604;49.432;8.680;2022-08-18T14:12:31;28.00;63.00
10231;DHT22;62604;49.432;8.680;2022-08-18T14:14:59;28.00;63.60
10231;DHT22;62604;49.432;8.680;2022-08-18T14:17:27;27.80;61.80
10231;DHT22;62604;49.432;8.680;2022-08-18T14:19:54;27.60;62.40
10231;DHT22;62604;49.432;8.680;2022-08-18T14:22:40;27.80;63.50
10231;DHT22;62604;49.432;8.680;2022-08-18T14:25:26;27.50;59.90
